createdAt,value
2023-04-18T00:00:13.905Z,11.33
2023-04-18T00:03:17.336Z,11.42
2023-04-18T00:06:19.199Z,11.47
2023-04-18T00:09:20.875Z,11.52
2023-04-18T00:12:22.828Z,11.54
2023-04-18T00:15:24.580Z,11.62
2023-04-18T00:18:27.616Z,11.56
2023-04-18T00:21:29.292Z,11.57
2023-04-18T00:24:30.967Z,11.65
2023-04-18T00:27:32.584Z,11.64
2023-04-18T00:30:34.519Z,11.57
2023-04-18T00:33:37.957Z,11.59
2023-04-18T00:36:39.821Z,11.59
2023-04-18T00:39:41.661Z,11.72
2023-04-18T00:42:43.288Z,11.68
2023-04-18T00:45:44.980Z,11.79
2023-04-18T00:48:49.016Z,11.76
2023-04-18T00:51:51.104Z,11.71
2023-04-18T00:54:54.054Z,11.69
2023-04-18T00:57:55.796Z,11.86
2023-04-18T01:04:18.301Z,11.77
2023-04-18T01:07:20.226Z,11.81
2023-04-18T01:10:22.054Z,11.80
2023-04-18T01:13:23.676Z,11.81
2023-04-18T01:16:25.757Z,11.67
2023-04-18T01:19:28.865Z,11.57
2023-04-18T01:22:31.919Z,11.56
2023-04-18T01:25:34.910Z,11.54
2023-04-18T01:28:37.167Z,11.56
2023-04-18T01:31:40.302Z,11.55
2023-04-18T01:34:41.975Z,11.62
2023-04-18T01:37:43.732Z,11.55
2023-04-18T01:40:46.788Z,11.60
2023-04-18T01:43:48.480Z,11.60
2023-04-18T01:46:50.218Z,11.60
2023-04-18T01:49:52.069Z,11.61
2023-04-18T01:52:53.983Z,11.65
2023-04-18T01:55:57.049Z,11.62
2023-04-18T01:58:58.746Z,11.66
2023-04-18T02:02:00.459Z,11.64
2023-04-18T02:05:02.262Z,11.63
2023-04-18T02:08:04.324Z,11.67
2023-04-18T02:11:07.350Z,11.61
2023-04-18T02:14:09.059Z,11.58
2023-04-18T02:17:10.727Z,11.74
2023-04-18T02:20:12.476Z,11.66
2023-04-18T02:23:14.374Z,11.64
2023-04-18T02:26:17.350Z,11.67
2023-04-18T02:29:19.207Z,11.67
2023-04-18T02:32:20.889Z,11.61
2023-04-18T02:35:23.546Z,11.66
2023-04-18T02:38:25.411Z,11.55
2023-04-18T02:41:28.410Z,11.51
2023-04-18T02:44:30.074Z,11.52
2023-04-18T02:47:37.493Z,11.50
2023-04-18T02:50:45.842Z,11.55
2023-04-18T02:53:47.766Z,11.43
2023-04-18T02:56:51.845Z,11.50
2023-04-18T02:59:53.719Z,11.49
2023-04-18T03:02:55.516Z,11.54
2023-04-18T03:05:57.247Z,11.56
2023-04-18T03:08:59.024Z,11.48
2023-04-18T03:12:02.150Z,11.52
2023-04-18T03:15:04.370Z,11.47
2023-04-18T03:18:06.181Z,11.38
2023-04-18T03:21:07.862Z,11.46
2023-04-18T03:24:11.981Z,11.39
2023-04-18T03:27:15.281Z,11.33
2023-04-18T03:30:17.738Z,11.28
2023-04-18T03:33:19.415Z,11.23
2023-04-18T03:36:21.112Z,11.21
2023-04-18T03:39:22.726Z,11.22
2023-04-18T03:42:25.663Z,11.21
2023-04-18T03:45:27.402Z,11.18
2023-04-18T03:48:29.177Z,11.18
2023-04-18T03:51:33.343Z,11.18
2023-04-18T03:54:34.969Z,11.18
2023-04-18T03:57:37.959Z,11.15
2023-04-18T04:00:39.581Z,11.19
2023-04-18T04:03:41.453Z,11.14
2023-04-18T04:06:43.604Z,11.14
2023-04-18T04:09:45.423Z,11.15
2023-04-18T04:12:48.487Z,11.16
2023-04-18T04:15:50.731Z,11.11
2023-04-18T04:18:52.353Z,11.17
2023-04-18T04:21:54.150Z,11.12
2023-04-18T04:24:56.481Z,11.12
2023-04-18T04:27:59.607Z,11.13
2023-04-18T04:31:01.525Z,11.21
2023-04-18T04:34:03.465Z,11.16
2023-04-18T04:37:05.122Z,11.16
2023-04-18T04:40:07.734Z,11.11
2023-04-18T04:43:10.717Z,11.15
2023-04-18T04:46:12.498Z,11.13
2023-04-18T04:49:14.273Z,11.15
2023-04-18T04:52:16.472Z,11.14
2023-04-18T04:55:18.338Z,11.21
2023-04-18T04:58:21.420Z,11.21
2023-04-18T05:01:23.160Z,11.24
2023-04-18T05:04:24.918Z,11.23
2023-04-18T05:07:26.740Z,11.32
2023-04-18T05:10:28.402Z,11.48
2023-04-18T05:13:31.718Z,11.48
2023-04-18T05:16:33.547Z,11.48
2023-04-18T05:19:35.431Z,11.49
2023-04-18T05:22:37.347Z,11.50
2023-04-18T05:25:39.145Z,11.54
2023-04-18T05:28:42.547Z,11.52
2023-04-18T05:31:45.130Z,11.62
2023-04-18T05:34:47.072Z,11.64
2023-04-18T05:37:48.768Z,11.63
2023-04-18T05:40:50.390Z,11.67
2023-04-18T05:44:04.261Z,11.75
2023-04-18T05:47:07.338Z,11.86
2023-04-18T05:50:09.674Z,11.89
2023-04-18T05:53:11.383Z,12.02
2023-04-18T05:56:13.190Z,12.11
2023-04-18T05:59:16.850Z,12.18
2023-04-18T06:02:18.403Z,12.36
2023-04-18T06:05:20.863Z,12.40
2023-04-18T06:08:22.588Z,12.52
2023-04-18T06:11:24.446Z,12.55
2023-04-18T06:14:27.570Z,12.58
2023-04-18T06:17:29.453Z,12.68
2023-04-18T06:20:31.219Z,12.73
2023-04-18T06:23:32.985Z,12.85
2023-04-18T06:26:34.997Z,12.94
2023-04-18T06:29:38.264Z,13.04
2023-04-18T06:32:39.952Z,13.15
2023-04-18T06:35:41.706Z,13.37
2023-04-18T06:38:43.456Z,13.63
2023-04-18T06:41:45.431Z,13.82
2023-04-18T06:44:48.409Z,13.83
2023-04-18T06:47:50.429Z,13.99
2023-04-18T06:50:52.429Z,14.13
2023-04-18T06:53:54.682Z,14.34
2023-04-18T06:56:56.404Z,14.50
2023-04-18T06:59:59.390Z,14.69
2023-04-18T07:03:01.259Z,14.83
2023-04-18T07:06:03.120Z,15.01
2023-04-18T07:09:04.867Z,15.07
2023-04-18T07:12:06.812Z,14.87
2023-04-18T07:15:10.733Z,14.86
2023-04-18T07:18:14.547Z,14.99
2023-04-18T07:21:19.764Z,15.03
2023-04-18T07:24:21.384Z,15.06
2023-04-18T07:27:23.037Z,15.23
2023-04-18T07:30:25.989Z,15.16
2023-04-18T07:33:27.647Z,15.13
2023-04-18T07:36:29.803Z,15.11
2023-04-18T07:39:31.591Z,15.12
2023-04-18T07:42:33.268Z,15.06
2023-04-18T07:45:36.373Z,14.84
2023-04-18T07:48:38.281Z,14.78
2023-04-18T07:51:39.920Z,14.85
2023-04-18T07:54:41.606Z,14.92
2023-04-18T07:57:43.896Z,15.02
2023-04-18T08:00:48.098Z,15.18
2023-04-18T08:03:50.217Z,15.38
2023-04-18T08:06:52.585Z,15.66
2023-04-18T08:09:54.263Z,15.59
2023-04-18T08:12:55.961Z,15.69
2023-04-18T08:15:59.613Z,15.85
2023-04-18T08:19:01.312Z,15.81
2023-04-18T08:22:08.480Z,15.70
2023-04-18T08:25:10.168Z,15.78
2023-04-18T08:28:12.498Z,15.77
2023-04-18T08:31:15.593Z,15.71
2023-04-18T08:34:17.330Z,15.56
2023-04-18T08:37:18.967Z,15.63
2023-04-18T08:40:20.880Z,15.53
2023-04-18T08:43:22.621Z,15.52
2023-04-18T08:46:26.345Z,15.65
2023-04-18T08:49:28.134Z,15.91
2023-04-18T08:52:31.996Z,15.98
2023-04-18T08:55:33.827Z,16.10
2023-04-18T08:58:35.475Z,16.17
2023-04-18T09:01:55.927Z,16.21
2023-04-18T09:04:57.587Z,16.30
2023-04-18T09:07:59.318Z,16.49
2023-04-18T09:11:25.375Z,16.47
2023-04-18T09:14:27.071Z,16.56
2023-04-18T09:17:35.184Z,16.48
2023-04-18T09:20:38.576Z,16.50
2023-04-18T09:23:40.163Z,16.47
2023-04-18T09:26:41.945Z,16.48
2023-04-18T09:29:45.253Z,16.50
2023-04-18T09:32:57.895Z,16.58
2023-04-18T09:36:17.674Z,16.74
2023-04-18T09:39:27.199Z,16.91
2023-04-18T09:42:36.077Z,17.03
2023-04-18T09:45:38.545Z,17.15
2023-04-18T09:48:41.733Z,17.34
2023-04-18T09:51:44.187Z,17.53
2023-04-18T09:54:48.340Z,17.66
2023-04-18T09:57:53.111Z,17.65
2023-04-18T10:00:56.280Z,17.55
2023-04-18T10:04:02.068Z,17.31
2023-04-18T10:07:04.447Z,17.41
2023-04-18T10:10:07.367Z,17.44
2023-04-18T10:13:11.455Z,17.40
2023-04-18T10:16:13.812Z,17.30
2023-04-18T10:19:24.717Z,17.09
2023-04-18T10:22:27.580Z,17.11
2023-04-18T10:25:48.229Z,17.08
2023-04-18T10:28:51.699Z,17.03
2023-04-18T10:31:53.468Z,17.11
2023-04-18T10:34:56.668Z,17.28
2023-04-18T10:37:59.950Z,17.37
2023-04-18T10:41:23.985Z,17.41
2023-04-18T10:44:25.671Z,17.38
2023-04-18T10:47:27.665Z,17.30
2023-04-18T10:50:31.082Z,17.51
2023-04-18T10:53:33.146Z,17.83
2023-04-18T10:56:35.072Z,18.33
2023-04-18T10:59:38.906Z,18.62
2023-04-18T11:02:47.658Z,18.22
2023-04-18T11:05:50.989Z,18.23
2023-04-18T11:09:09.374Z,18.26
2023-04-18T11:12:11.534Z,18.17
2023-04-18T11:15:14.624Z,17.98
2023-04-18T11:18:16.404Z,17.94
2023-04-18T11:21:19.765Z,17.57
2023-04-18T11:24:21.952Z,17.42
2023-04-18T11:27:25.182Z,17.51
2023-04-18T11:30:27.756Z,17.54
2023-04-18T11:33:29.582Z,17.68
2023-04-18T11:36:34.296Z,17.66
2023-04-18T11:39:41.273Z,17.69
2023-04-18T11:42:43.160Z,17.55
2023-04-18T11:45:51.486Z,17.43
2023-04-18T11:48:53.371Z,17.32
2023-04-18T11:51:56.737Z,17.44
2023-04-18T11:55:09.775Z,17.42
2023-04-18T11:58:11.504Z,17.58
2023-04-18T12:01:17.986Z,17.69
2023-04-18T12:04:20.113Z,17.75
2023-04-18T12:07:37.314Z,17.60
2023-04-18T12:10:46.879Z,17.47
2023-04-18T12:13:48.546Z,17.43
2023-04-18T12:16:50.350Z,17.42
2023-04-18T12:19:52.076Z,17.51
2023-04-18T12:22:55.175Z,17.68
2023-04-18T12:26:00.915Z,17.62
2023-04-18T12:29:02.589Z,17.85
2023-04-18T12:32:04.698Z,17.86
2023-04-18T12:35:07.601Z,18.11
2023-04-18T12:38:10.715Z,18.20
2023-04-18T12:41:13.802Z,18.17
2023-04-18T12:44:15.709Z,17.94
2023-04-18T12:47:17.583Z,17.62
2023-04-18T12:50:20.890Z,17.42
2023-04-18T12:53:23.967Z,17.25
2023-04-18T12:56:25.817Z,16.95
2023-04-18T12:59:27.466Z,16.92
2023-04-18T13:02:29.282Z,16.92
2023-04-18T13:05:33.490Z,17.25
2023-04-18T13:08:37.355Z,17.57
2023-04-18T13:11:39.032Z,17.80
2023-04-18T13:14:41.830Z,18.08
2023-04-18T13:17:43.943Z,18.33
2023-04-18T13:20:45.730Z,18.55
2023-04-18T13:23:49.027Z,18.84
2023-04-18T13:26:50.785Z,18.92
2023-04-18T13:29:52.501Z,18.87
2023-04-18T13:32:54.231Z,18.95
2023-04-18T13:35:56.072Z,18.93
2023-04-18T13:38:59.107Z,19.01
2023-04-18T13:42:01.388Z,18.71
2023-04-18T13:45:03.352Z,18.54
2023-04-18T13:48:06.447Z,18.52
2023-04-18T13:51:08.186Z,18.41
2023-04-18T13:54:11.281Z,18.32
2023-04-18T13:57:12.950Z,18.12
2023-04-18T14:00:15.464Z,18.04
2023-04-18T14:03:17.316Z,17.60
2023-04-18T14:06:19.059Z,17.65
2023-04-18T14:09:22.180Z,17.55
2023-04-18T14:12:23.893Z,17.32
2023-04-18T14:15:25.974Z,17.43
2023-04-18T14:18:27.679Z,17.66
2023-04-18T14:21:29.745Z,17.68
2023-04-18T14:24:32.867Z,17.76
2023-04-18T14:27:34.509Z,17.78
2023-04-18T14:30:36.813Z,17.76
2023-04-18T14:33:38.777Z,17.56
2023-04-18T14:36:40.468Z,17.38
2023-04-18T14:39:43.566Z,17.15
2023-04-18T14:42:45.286Z,17.19
2023-04-18T14:45:47.251Z,17.21
2023-04-18T14:48:49.320Z,17.12
2023-04-18T14:51:51.466Z,17.13
2023-04-18T14:54:54.826Z,17.06
2023-04-18T14:57:56.342Z,17.01
2023-04-18T15:00:58.041Z,17.06
2023-04-18T15:03:59.804Z,17.09
2023-04-18T15:07:01.868Z,17.16
2023-04-18T15:10:06.096Z,17.00
2023-04-18T15:13:07.925Z,17.13
2023-04-18T15:16:09.616Z,17.06
2023-04-18T15:19:11.334Z,17.04
2023-04-18T15:22:13.379Z,17.02
2023-04-18T15:25:16.570Z,16.98
2023-04-18T15:28:19.271Z,17.05
2023-04-18T15:31:21.094Z,17.08
2023-04-18T15:34:22.989Z,17.06
2023-04-18T15:37:24.716Z,17.12
2023-04-18T15:40:28.169Z,17.29
2023-04-18T15:43:29.891Z,17.22
2023-04-18T15:46:31.871Z,17.29
2023-04-18T15:49:33.651Z,17.41
2023-04-18T15:52:35.631Z,17.49
2023-04-18T15:55:39.062Z,17.54
2023-04-18T15:58:40.999Z,17.49
2023-04-18T16:01:45.194Z,17.49
2023-04-18T16:04:47.855Z,17.45
2023-04-18T16:07:49.693Z,17.40
2023-04-18T16:10:53.260Z,17.38
2023-04-18T16:13:55.205Z,17.29
2023-04-18T16:16:59.203Z,17.22
2023-04-18T16:20:00.877Z,17.20
2023-04-18T16:23:02.601Z,17.24
2023-04-18T16:26:06.312Z,17.16
2023-04-18T16:29:08.296Z,17.14
2023-04-18T16:32:10.078Z,17.04
2023-04-18T16:35:12.481Z,16.90
2023-04-18T16:38:14.426Z,16.91
2023-04-18T16:41:17.805Z,16.83
2023-04-18T16:44:19.281Z,16.75
2023-04-18T16:47:21.252Z,16.68
2023-04-18T16:50:23.319Z,16.58
2023-04-18T16:53:26.070Z,16.47
2023-04-18T16:56:29.310Z,16.40
2023-04-18T16:59:31.724Z,16.26
2023-04-18T17:02:33.916Z,16.17
2023-04-18T17:05:35.916Z,16.12
2023-04-18T17:08:37.596Z,16.03
2023-04-18T17:11:41.055Z,15.94
2023-04-18T17:14:44.018Z,15.85
2023-04-18T17:17:45.819Z,15.76
2023-04-18T17:20:47.982Z,15.63
2023-04-18T17:23:50.162Z,15.49
2023-04-18T17:26:53.297Z,15.34
2023-04-18T17:29:55.020Z,15.25
2023-04-18T17:32:57.727Z,15.12
2023-04-18T17:36:00.808Z,15.06
2023-04-18T17:39:03.092Z,15.07
2023-04-18T17:42:07.146Z,14.92
2023-04-18T17:45:10.145Z,14.81
2023-04-18T17:48:12.307Z,14.72
2023-04-18T17:51:15.246Z,14.59
2023-04-18T17:54:17.730Z,14.55
2023-04-18T17:57:24.483Z,14.47
2023-04-18T18:00:26.856Z,14.28
2023-04-18T18:03:31.972Z,14.30
2023-04-18T18:06:34.177Z,14.31
2023-04-18T18:09:37.709Z,14.20
2023-04-18T18:12:42.476Z,14.16
2023-04-18T18:15:45.468Z,14.14
2023-04-18T18:18:50.747Z,14.00
2023-04-18T18:21:59.331Z,14.08
2023-04-18T18:25:03.232Z,14.13
2023-04-18T18:28:12.896Z,14.23
2023-04-18T18:31:17.676Z,14.21
2023-04-18T18:34:20.010Z,14.33
2023-04-18T18:37:41.923Z,14.34
2023-04-18T18:40:53.639Z,14.30
2023-04-18T18:43:57.236Z,14.21
2023-04-18T18:47:28.692Z,14.18
2023-04-18T18:50:42.153Z,14.07
2023-04-18T18:53:59.872Z,14.12
2023-04-18T18:57:04.195Z,14.15
2023-04-18T19:00:09.769Z,14.15
2023-04-18T19:03:13.762Z,14.23
2023-04-18T19:06:24.312Z,14.25
2023-04-18T19:09:44.598Z,14.26
2023-04-18T19:12:52.886Z,14.25
2023-04-18T19:15:59.048Z,14.26
2023-04-18T19:19:02.145Z,14.23
2023-04-18T19:22:04.787Z,14.30
2023-04-18T19:25:28.499Z,14.13
2023-04-18T19:28:34.388Z,14.05
2023-04-18T19:31:40.746Z,14.02
2023-04-18T19:34:43.471Z,14.00
2023-04-18T19:37:45.228Z,13.87
2023-04-18T19:40:47.004Z,13.79
2023-04-18T19:43:49.138Z,13.78
2023-04-18T19:46:54.698Z,13.72
2023-04-18T19:49:57.326Z,13.69
2023-04-18T19:52:59.664Z,13.64
2023-04-18T19:56:18.793Z,13.63
2023-04-18T19:59:30.979Z,13.58
2023-04-18T20:02:35.528Z,13.52
2023-04-18T20:05:37.754Z,13.52
2023-04-18T20:08:42.380Z,13.42
2023-04-18T20:11:55.362Z,13.37
2023-04-18T20:14:58.247Z,13.25
2023-04-18T20:18:02.386Z,13.24
2023-04-18T20:21:08.512Z,13.24
2023-04-18T20:24:12.280Z,13.22
2023-04-18T20:27:14.753Z,13.19
2023-04-18T20:30:16.840Z,13.19
2023-04-18T20:33:20.520Z,13.25
2023-04-18T20:36:23.547Z,13.19
2023-04-18T20:39:38.275Z,13.25
2023-04-18T20:42:41.157Z,13.32
2023-04-18T20:45:43.639Z,13.41
2023-04-18T20:48:47.466Z,13.40
2023-04-18T20:51:49.280Z,13.44
2023-04-18T20:54:51.378Z,13.42
2023-04-18T20:57:53.581Z,13.48
2023-04-18T21:00:55.334Z,13.62
2023-04-18T21:03:58.598Z,13.63
2023-04-18T21:07:00.700Z,13.71
2023-04-18T21:10:02.974Z,13.73
2023-04-18T21:13:04.656Z,13.67
2023-04-18T21:16:07.074Z,13.66
2023-04-18T21:19:10.642Z,13.63
2023-04-18T21:22:13.001Z,13.54
2023-04-18T21:25:14.709Z,13.63
2023-04-18T21:28:18.706Z,13.53
2023-04-18T21:31:20.432Z,13.57
2023-04-18T21:34:23.510Z,13.59
2023-04-18T21:37:25.321Z,13.61
2023-04-18T21:40:27.273Z,13.52
2023-04-18T21:43:29.083Z,13.52
2023-04-18T21:46:31.074Z,13.51
2023-04-18T21:49:34.190Z,13.37
2023-04-18T21:52:35.898Z,13.30
2023-04-18T21:55:37.554Z,13.30
2023-04-18T21:58:39.319Z,13.31
2023-04-18T22:01:41.200Z,13.27
2023-04-18T22:04:44.283Z,13.31
2023-04-18T22:07:54.983Z,13.20
2023-04-18T22:11:00.326Z,13.19
2023-04-18T22:14:01.998Z,13.20
2023-04-18T22:17:03.804Z,13.24
2023-04-18T22:20:08.445Z,13.18
2023-04-18T22:23:10.864Z,13.21
2023-04-18T22:26:13.123Z,13.20
2023-04-18T22:29:15.058Z,13.17
2023-04-18T22:32:16.709Z,13.11
2023-04-18T22:35:20.099Z,13.11
2023-04-18T22:38:22.058Z,13.17
2023-04-18T22:41:23.986Z,13.11
2023-04-18T22:44:25.952Z,13.08
2023-04-18T22:47:27.928Z,13.14
2023-04-18T22:50:30.930Z,13.14
2023-04-18T22:53:32.846Z,13.04
2023-04-18T22:56:34.834Z,13.12
2023-04-18T22:59:36.560Z,13.10
2023-04-18T23:02:38.685Z,13.07
2023-04-18T23:05:41.960Z,13.09
2023-04-18T23:08:43.647Z,12.99
2023-04-18T23:11:45.553Z,13.04
2023-04-18T23:14:48.080Z,13.04
2023-04-18T23:17:51.951Z,13.07
2023-04-18T23:20:55.136Z,13.03
2023-04-18T23:23:56.829Z,12.93
2023-04-18T23:26:58.608Z,13.10
2023-04-18T23:30:00.498Z,12.94
2023-04-18T23:33:02.516Z,12.96
2023-04-18T23:36:06.231Z,12.91
2023-04-18T23:39:08.136Z,12.90
2023-04-18T23:42:12.431Z,12.91
2023-04-18T23:45:14.579Z,12.87
2023-04-18T23:48:16.522Z,12.87
2023-04-18T23:51:19.634Z,12.82
2023-04-18T23:54:21.252Z,12.91
2023-04-18T23:57:22.978Z,12.82
